Time;durP1;ratioP1;P1;durP2;ratioP2;P2;SDS_P1;SDS_P2;PMS_P1;PMS_P2;Temp;Humidity;BMP_temperature;BMP_pressure;BME280_temperature;BME280_humidity;BME280_pressure;Samples;Min_cycle;Max_cycle;Signal;HPM_P1;HPM_P2
2022/04/13 00:01:19;;;;;;;1.63;0.65;;;13.90;66.60;;;;;;4953938;29;20129;-75
2022/04/13 00:03:46;;;;;;;1.00;0.88;;;13.90;68.20;;;;;;4953888;29;20042;-75
2022/04/13 00:06:13;;;;;;;1.35;0.82;;;13.80;71.00;;;;;;4953762;29;20023;-74
2022/04/13 00:08:40;;;;;;;2.20;0.70;;;13.60;71.60;;;;;;4954524;29;20102;-75
2022/04/13 00:11:06;;;;;;;1.88;0.63;;;13.50;70.90;;;;;;4953514;29;20296;-74
2022/04/13 00:13:31;;;;;;;0.47;0.47;;;13.40;70.30;;;;;;4953820;29;20291;-74
2022/04/13 00:15:57;;;;;;;0.73;0.50;;;13.30;73.90;;;;;;4953513;29;20480;-75
2022/04/13 00:18:23;;;;;;;1.05;0.85;;;13.30;71.00;;;;;;4953693;29;20555;-75
2022/04/13 00:20:48;;;;;;;1.77;0.65;;;13.20;70.90;;;;;;4953697;29;20118;-75
2022/04/13 00:23:14;;;;;;;3.63;0.70;;;13.10;71.80;;;;;;4953336;29;20027;-75
2022/04/13 00:25:41;;;;;;;3.05;1.25;;;13.00;74.60;;;;;;4953354;29;20019;-74
2022/04/13 00:28:10;;;;;;;2.00;0.70;;;12.90;77.40;;;;;;4953190;29;20026;-74
2022/04/13 00:30:36;;;;;;;1.60;0.50;;;12.80;76.00;;;;;;4936073;29;20484;-75
2022/04/13 00:33:02;;;;;;;1.00;0.60;;;12.70;87.10;;;;;;4953247;29;20027;-74
2022/04/13 00:35:28;;;;;;;1.63;0.73;;;12.60;91.00;;;;;;4953211;29;20115;-75
2022/04/13 00:37:54;;;;;;;1.50;0.82;;;12.50;91.90;;;;;;4953093;29;20098;-75
2022/04/13 00:40:20;;;;;;;1.92;1.00;;;12.30;95.90;;;;;;4952820;29;20480;-75
2022/04/13 00:42:46;;;;;;;0.93;0.82;;;12.30;99.80;;;;;;4952933;29;20074;-75
2022/04/13 00:45:12;;;;;;;4.13;0.70;;;12.20;99.90;;;;;;4953039;29;20024;-75
2022/04/13 00:47:40;;;;;;;4.25;0.60;;;12.10;99.90;;;;;;4953349;29;20031;-76
2022/04/13 00:50:10;;;;;;;0.57;0.57;;;11.90;99.90;;;;;;4953235;29;20082;-75
2022/04/13 00:52:40;;;;;;;6.03;1.02;;;11.90;99.90;;;;;;4954003;29;20028;-75
2022/04/13 00:55:09;;;;;;;3.45;0.60;;;11.90;99.90;;;;;;4952629;29;20035;-75
2022/04/13 00:57:37;;;;;;;3.60;1.40;;;11.80;99.90;;;;;;4953163;29;20027;-75
2022/04/13 01:00:06;;;;;;;5.57;0.60;;;11.70;99.90;;;;;;4953176;29;20031;-75
2022/04/13 01:02:35;;;;;;;3.97;0.65;;;11.60;99.90;;;;;;4952769;28;20098;-75
2022/04/13 01:05:03;;;;;;;1.30;0.60;;;11.60;99.90;;;;;;4953366;29;20031;-74
2022/04/13 01:07:29;;;;;;;2.42;0.70;;;11.40;99.90;;;;;;4953007;29;20069;-75
2022/04/13 01:09:57;;;;;;;0.50;0.50;;;11.40;99.90;;;;;;4953025;29;20027;-74
2022/04/13 01:12:23;;;;;;;3.83;1.35;;;11.40;99.90;;;;;;4953295;29;20085;-75
2022/04/13 01:14:49;;;;;;;1.27;0.52;;;11.30;99.90;;;;;;4952471;29;20031;-75
2022/04/13 01:17:15;;;;;;;1.55;0.70;;;11.20;99.90;;;;;;4952839;29;20503;-75
2022/04/13 01:19:41;;;;;;;1.13;0.65;;;11.30;99.90;;;;;;4953106;29;20027;-75
2022/04/13 01:22:18;;;;;;;3.40;0.60;;;11.20;99.90;;;;;;4952928;29;20028;-75
2022/04/13 01:24:45;;;;;;;2.08;1.48;;;11.10;99.90;;;;;;4935405;29;20070;-75
2022/04/13 01:27:10;;;;;;;1.40;0.75;;;11.00;99.90;;;;;;4953122;29;20027;-75
2022/04/13 01:29:36;;;;;;;0.57;0.55;;;11.10;99.90;;;;;;4952912;29;20054;-75
2022/04/13 01:32:03;;;;;;;2.33;1.00;;;11.10;99.90;;;;;;4952423;28;20059;-74
2022/04/13 01:34:29;;;;;;;0.65;0.40;;;11.10;99.90;;;;;;4952768;29;20038;-75
2022/04/13 01:36:54;;;;;;;2.63;0.65;;;11.00;99.90;;;;;;4953014;29;20035;-75
2022/04/13 01:39:20;;;;;;;0.60;0.60;;;11.10;99.90;;;;;;4934872;29;20031;-75
2022/04/13 01:41:46;;;;;;;1.48;0.77;;;10.80;99.90;;;;;;4952631;29;20019;-74
2022/04/13 01:44:15;;;;;;;1.25;0.80;;;11.00;99.90;;;;;;4952795;29;20027;-75
2022/04/13 01:46:41;;;;;;;1.52;0.80;;;10.90;99.90;;;;;;4952482;29;20023;-75
2022/04/13 01:49:07;;;;;;;0.90;0.60;;;11.00;99.90;;;;;;4952819;29;20027;-75
2022/04/13 01:51:33;;;;;;;1.17;1.08;;;11.20;99.90;;;;;;4952402;29;20034;-75
2022/04/13 01:53:58;;;;;;;3.92;0.80;;;11.30;99.90;;;;;;4934713;29;20035;-75
2022/04/13 01:56:24;;;;;;;5.18;0.73;;;11.20;99.90;;;;;;4952014;29;20046;-74
2022/04/13 01:58:50;;;;;;;2.38;0.80;;;11.00;99.90;;;;;;4952331;29;20055;-75
2022/04/13 02:01:17;;;;;;;2.05;0.70;;;10.80;99.90;;;;;;4952821;29;20437;-75
2022/04/13 02:03:43;;;;;;;3.38;0.88;;;10.80;99.90;;;;;;4952546;29;20465;-74
2022/04/13 02:06:09;;;;;;;1.95;0.50;;;10.80;99.90;;;;;;4952046;29;20111;-74
2022/04/13 02:08:35;;;;;;;1.45;0.80;;;10.80;99.90;;;;;;4952162;29;20027;-75
2022/04/13 02:11:02;;;;;;;3.60;0.70;;;10.70;99.90;;;;;;4951648;29;20369;-75
2022/04/13 02:13:27;;;;;;;0.60;0.60;;;10.80;99.90;;;;;;4934792;29;20055;-75
2022/04/13 02:15:53;;;;;;;3.88;0.68;;;10.70;99.90;;;;;;4956425;28;20436;-75
2022/04/13 02:18:19;;;;;;;2.22;0.60;;;10.70;99.90;;;;;;4955941;29;20377;-75
2022/04/13 02:20:45;;;;;;;2.45;1.23;;;10.70;99.90;;;;;;4955896;29;20374;-75
2022/04/13 02:23:11;;;;;;;2.05;0.60;;;10.70;99.90;;;;;;4955730;29;20547;-75
2022/04/13 02:25:36;;;;;;;1.35;0.73;;;10.50;99.90;;;;;;4955380;29;20035;-75
2022/04/13 02:28:06;;;;;;;3.13;0.80;;;10.40;99.90;;;;;;4955799;29;20035;-75
2022/04/13 02:30:33;;;;;;;0.88;0.60;;;10.40;99.90;;;;;;4955478;28;20062;-75
2022/04/13 02:32:59;;;;;;;0.63;0.63;;;10.40;99.90;;;;;;4955525;29;20114;-74
2022/04/13 02:35:25;;;;;;;1.60;0.60;;;10.40;99.90;;;;;;4955730;29;20031;-75
2022/04/13 02:37:51;;;;;;;1.27;0.70;;;10.40;99.90;;;;;;4955876;29;20027;-75
2022/04/13 02:40:17;;;;;;;1.60;0.60;;;10.30;99.90;;;;;;4955759;29;20023;-75
2022/04/13 02:42:43;;;;;;;1.13;0.60;;;10.20;99.90;;;;;;4955888;29;20115;-74
2022/04/13 02:45:09;;;;;;;2.10;0.40;;;10.10;99.90;;;;;;4956438;29;20477;-75
2022/04/13 02:47:35;;;;;;;2.75;0.45;;;10.10;99.90;;;;;;4955231;29;20475;-75
2022/04/13 02:50:02;;;;;;;1.63;0.63;;;10.10;99.90;;;;;;4955071;29;20027;-74
2022/04/13 02:52:28;;;;;;;3.05;0.70;;;10.00;99.90;;;;;;4956179;29;20126;-75
2022/04/13 02:54:58;;;;;;;0.80;0.55;;;10.00;99.90;;;;;;4955259;29;20035;-75
2022/04/13 02:57:24;;;;;;;3.38;0.55;;;9.90;99.90;;;;;;4955453;29;20027;-75
2022/04/13 02:59:50;;;;;;;1.98;0.57;;;10.00;99.90;;;;;;4955205;29;20039;-75
2022/04/13 03:02:16;;;;;;;1.08;0.63;;;9.90;99.90;;;;;;4955049;29;20469;-75
2022/04/13 03:04:44;;;;;;;1.17;0.50;;;9.90;99.90;;;;;;4955489;29;20600;-75
2022/04/13 03:07:15;;;;;;;2.55;0.60;;;10.00;99.90;;;;;;4955271;29;20027;-75
2022/04/13 03:09:41;;;;;;;6.00;0.70;;;10.00;99.90;;;;;;4954839;29;20055;-75
2022/04/13 03:12:07;;;;;;;7.88;0.68;;;9.90;99.90;;;;;;4955035;29;20113;-75
2022/04/13 03:14:34;;;;;;;0.85;0.60;;;9.90;99.90;;;;;;4954891;29;20041;-74
2022/04/13 03:17:00;;;;;;;0.50;0.50;;;9.90;99.90;;;;;;4954866;29;20385;-74
2022/04/13 03:19:26;;;;;;;2.40;0.70;;;10.00;99.90;;;;;;4954864;29;20035;-75
2022/04/13 03:21:53;;;;;;;0.60;0.43;;;9.90;99.90;;;;;;4955148;29;20141;-74
2022/04/13 03:24:20;;;;;;;1.35;0.70;;;10.00;99.90;;;;;;4954531;29;20476;-75
2022/04/13 03:26:46;;;;;;;1.00;0.68;;;10.00;99.90;;;;;;4937215;29;20378;-74
2022/04/13 03:29:12;;;;;;;1.85;0.70;;;10.00;99.90;;;;;;4954819;28;20188;-75
2022/04/13 03:31:37;;;;;;;0.73;0.63;;;10.10;99.90;;;;;;4955050;29;20024;-75
2022/04/13 03:34:03;;;;;;;0.80;0.80;;;10.10;99.90;;;;;;4954457;29;20115;-75
2022/04/13 03:36:29;;;;;;;1.85;0.77;;;10.00;99.90;;;;;;4954575;29;20070;-75
2022/04/13 03:38:54;;;;;;;1.20;0.70;;;9.90;99.90;;;;;;4954787;29;20114;-74
2022/04/13 03:41:20;;;;;;;3.80;0.70;;;9.90;99.90;;;;;;4954158;29;20386;-74
2022/04/13 03:43:46;;;;;;;1.10;0.75;;;9.90;99.90;;;;;;4954814;29;20034;-74
2022/04/13 03:46:12;;;;;;;1.50;0.77;;;9.80;99.90;;;;;;4954326;29;20035;-75
2022/04/13 03:48:37;;;;;;;1.55;0.75;;;9.80;99.90;;;;;;4954491;29;20033;-75
2022/04/13 03:51:03;;;;;;;0.52;0.52;;;9.80;99.90;;;;;;4954791;29;20191;-75
2022/04/13 03:53:29;;;;;;;4.50;0.50;;;9.90;99.90;;;;;;4954100;29;20019;-75
2022/04/13 03:55:55;;;;;;;6.13;1.65;;;9.90;99.90;;;;;;4954113;29;20369;-75
2022/04/13 03:58:21;;;;;;;1.88;0.63;;;9.80;99.90;;;;;;4954727;29;20019;-75
2022/04/13 04:00:46;;;;;;;0.85;0.70;;;9.80;99.90;;;;;;4955187;29;20502;-75
2022/04/13 04:03:12;;;;;;;1.08;1.08;;;9.80;99.90;;;;;;4954678;29;20441;-75
2022/04/13 04:05:38;;;;;;;2.95;0.73;;;9.70;99.90;;;;;;4954213;29;20034;-74
2022/04/13 04:08:04;;;;;;;0.57;0.57;;;9.70;99.90;;;;;;4953730;29;20027;-75
2022/04/13 04:10:30;;;;;;;1.33;0.50;;;9.70;99.90;;;;;;4937299;29;20480;-75
2022/04/13 04:12:56;;;;;;;1.40;0.75;;;9.60;99.90;;;;;;4953691;29;20039;-74
2022/04/13 04:15:21;;;;;;;1.60;0.60;;;9.50;99.90;;;;;;4953894;29;20524;-75
2022/04/13 04:17:49;;;;;;;1.85;0.63;;;9.30;99.90;;;;;;4954103;29;20023;-75
2022/04/13 04:20:14;;;;;;;1.10;0.70;;;9.20;99.90;;;;;;4953912;29;20495;-75
2022/04/13 04:22:40;;;;;;;2.15;1.23;;;9.10;99.90;;;;;;4953632;29;20034;-75
2022/04/13 04:25:08;;;;;;;2.38;0.73;;;9.10;99.90;;;;;;4953579;29;20015;-75
2022/04/13 04:27:33;;;;;;;2.92;0.70;;;9.10;99.90;;;;;;4953678;29;20120;-75
2022/04/13 04:30:00;;;;;;;1.48;0.80;;;9.10;99.90;;;;;;4954035;28;20473;-75
2022/04/13 04:32:26;;;;;;;4.28;0.70;;;9.10;99.90;;;;;;4953823;29;20031;-74
2022/04/13 04:34:52;;;;;;;1.67;0.70;;;9.20;99.90;;;;;;4953812;29;20102;-74
2022/04/13 04:37:18;;;;;;;2.30;0.70;;;9.10;99.90;;;;;;4952649;28;20019;-75
2022/04/13 04:39:44;;;;;;;7.95;0.95;;;9.00;99.90;;;;;;4952916;29;20542;-74
2022/04/13 04:42:10;;;;;;;1.95;0.95;;;8.90;99.90;;;;;;4953812;29;20026;-75
2022/04/13 04:44:36;;;;;;;1.38;0.85;;;8.90;99.90;;;;;;4953076;29;20023;-75
2022/04/13 04:47:02;;;;;;;1.70;0.88;;;8.80;99.90;;;;;;4953452;29;20380;-75
2022/04/13 04:49:27;;;;;;;1.02;0.65;;;8.70;99.90;;;;;;4953370;29;20203;-75
2022/04/13 04:51:53;;;;;;;3.88;0.80;;;8.60;99.90;;;;;;4953916;29;20170;-75
2022/04/13 04:54:19;;;;;;;1.40;1.30;;;8.60;99.90;;;;;;4952738;29;20046;-74
2022/04/13 04:56:44;;;;;;;2.70;0.80;;;8.70;99.90;;;;;;4953454;29;20108;-74
2022/04/13 04:59:10;;;;;;;8.10;1.05;;;8.80;99.90;;;;;;4953420;29;20376;-75
2022/04/13 05:01:36;;;;;;;0.98;0.93;;;8.80;99.90;;;;;;4935546;29;20023;-75
2022/04/13 05:04:01;;;;;;;1.48;0.85;;;8.70;99.90;;;;;;4952683;29;20028;-75
2022/04/13 05:06:29;;;;;;;1.45;0.77;;;8.70;99.90;;;;;;4953217;29;20031;-75
2022/04/13 05:08:55;;;;;;;0.60;0.60;;;8.70;99.90;;;;;;4953031;29;20381;-75
2022/04/13 05:11:21;;;;;;;2.15;0.88;;;8.70;99.90;;;;;;4953283;29;20032;-75
2022/04/13 05:13:48;;;;;;;1.08;0.82;;;8.80;99.90;;;;;;4952832;29;20047;-75
2022/04/13 05:16:15;;;;;;;1.77;1.27;;;8.90;99.90;;;;;;4953296;29;20384;-75
2022/04/13 05:18:41;;;;;;;2.03;0.77;;;8.90;99.90;;;;;;4953102;29;20089;-75
2022/04/13 05:21:07;;;;;;;1.42;0.80;;;9.00;99.90;;;;;;4952665;29;20046;-74
2022/04/13 05:23:33;;;;;;;3.08;1.13;;;9.10;99.90;;;;;;4952397;29;20055;-75
2022/04/13 05:25:58;;;;;;;1.80;0.70;;;9.20;99.90;;;;;;4952779;29;20031;-74
2022/04/13 05:28:24;;;;;;;1.58;0.55;;;9.30;99.90;;;;;;4952543;29;20051;-75
2022/04/13 05:30:50;;;;;;;2.00;0.90;;;9.50;99.90;;;;;;4952008;28;20396;-75
2022/04/13 05:33:16;;;;;;;2.05;0.63;;;9.60;99.90;;;;;;4952652;29;20023;-75
2022/04/13 05:35:42;;;;;;;0.52;0.52;;;9.80;99.90;;;;;;4952384;29;20440;-75
2022/04/13 05:38:07;;;;;;;1.88;0.65;;;9.90;99.90;;;;;;4952713;29;20031;-75
2022/04/13 05:40:34;;;;;;;3.00;0.90;;;10.00;99.90;;;;;;4952567;29;20042;-75
2022/04/13 05:43:00;;;;;;;1.85;0.90;;;10.20;99.90;;;;;;4952709;29;20103;-74
2022/04/13 05:45:26;;;;;;;1.08;1.08;;;10.40;99.90;;;;;;4952095;29;20023;-75
2022/04/13 05:47:51;;;;;;;1.48;0.60;;;10.60;99.90;;;;;;4952134;29;20030;-75
2022/04/13 05:50:18;;;;;;;2.58;0.88;;;10.70;99.90;;;;;;4953026;28;20023;-75
2022/04/13 05:52:44;;;;;;;2.95;0.68;;;10.90;99.90;;;;;;4952377;29;20105;-75
2022/04/13 05:55:11;;;;;;;0.55;0.50;;;10.90;99.90;;;;;;4951864;29;20403;-75
2022/04/13 05:57:37;;;;;;;1.90;0.65;;;11.00;99.90;;;;;;4952033;29;20015;-75
2022/04/13 06:00:08;;;;;;;0.77;0.70;;;11.30;99.90;;;;;;4951606;29;20058;-75
2022/04/13 06:02:35;;;;;;;2.08;0.70;;;11.50;99.90;;;;;;4938712;29;20034;-75
2022/04/13 06:05:01;;;;;;;1.58;1.25;;;11.80;99.90;;;;;;4937598;29;20452;-75
2022/04/13 06:07:27;;;;;;;0.70;0.70;;;11.90;99.90;;;;;;4953291;29;20027;-75
2022/04/13 06:09:52;;;;;;;2.15;0.80;;;12.20;99.90;;;;;;4934467;29;20118;-75
2022/04/13 06:12:24;;;;;;;0.68;0.68;;;12.20;99.90;;;;;;4934382;29;20042;-74
2022/04/13 06:14:50;;;;;;;4.75;0.60;;;12.30;99.90;;;;;;4952117;29;20035;-75
2022/04/13 06:17:16;;;;;;;2.75;0.70;;;12.40;99.90;;;;;;4951688;29;20027;-75
2022/04/13 06:19:43;;;;;;;2.92;0.90;;;12.40;99.90;;;;;;4951570;29;20514;-75
2022/04/13 06:22:09;;;;;;;1.13;0.50;;;12.60;99.90;;;;;;4951518;29;20446;-75
2022/04/13 06:24:35;;;;;;;1.38;1.02;;;13.00;99.90;;;;;;4950962;29;20114;-75
2022/04/13 06:27:00;;;;;;;6.78;2.45;;;13.50;99.90;;;;;;4933826;29;20026;-75
2022/04/13 06:29:26;;;;;;;3.55;1.20;;;13.80;99.90;;;;;;4951050;29;20508;-75
2022/04/13 06:31:52;;;;;;;1.65;1.00;;;14.10;99.90;;;;;;4951065;29;20023;-75
2022/04/13 06:34:17;;;;;;;1.88;0.55;;;14.40;99.90;;;;;;4950845;29;20043;-75
2022/04/13 06:36:43;;;;;;;1.15;0.88;;;14.80;98.70;;;;;;4951117;29;20031;-75
2022/04/13 06:39:09;;;;;;;1.23;0.95;;;15.20;95.70;;;;;;4950481;29;20032;-74
2022/04/13 06:41:35;;;;;;;4.72;2.17;;;15.40;94.20;;;;;;4951218;29;20059;-75
2022/04/13 06:44:02;;;;;;;2.13;1.70;;;15.80;93.60;;;;;;4950703;29;20047;-75
2022/04/13 06:46:28;;;;;;;2.60;1.33;;;16.30;91.20;;;;;;4950872;29;20087;-75
2022/04/13 06:48:54;;;;;;;5.72;2.30;;;16.70;90.30;;;;;;4951000;29;20436;-76
2022/04/13 06:51:19;;;;;;;7.20;1.60;;;17.00;84.30;;;;;;4950874;29;20023;-75
2022/04/13 06:53:45;;;;;;;1.83;1.02;;;17.30;83.70;;;;;;4950471;29;20114;-75
2022/04/13 06:56:11;;;;;;;3.28;1.00;;;17.30;66.50;;;;;;4951273;29;20043;-75
2022/04/13 06:58:36;;;;;;;8.43;1.13;;;17.40;70.40;;;;;;4950612;29;20412;-75
2022/04/13 07:01:02;;;;;;;4.20;0.60;;;17.50;69.20;;;;;;4951700;28;20034;-78
2022/04/13 07:03:28;;;;;;;0.75;0.63;;;17.70;67.60;;;;;;4954251;29;20537;-75
2022/04/13 07:05:53;;;;;;;2.50;0.80;;;17.90;62.00;;;;;;4954228;29;20027;-75
2022/04/13 07:08:19;;;;;;;34.28;16.88;;;18.10;61.10;;;;;;4954384;29;20027;-76
2022/04/13 07:10:45;;;;;;;17.45;8.30;;;18.00;61.10;;;;;;4953935;29;20026;-75
2022/04/13 07:13:14;;;;;;;1.88;0.75;;;18.40;59.20;;;;;;4936392;29;20031;-75
2022/04/13 07:15:40;;;;;;;;;;;18.30;56.10;;;;;;4937417;29;20102;-75
2022/04/13 07:18:06;;;;;;;3.55;1.45;;;18.10;57.10;;;;;;4953709;29;20371;-75
2022/04/13 07:20:31;;;;;;;4.95;0.90;;;18.10;56.50;;;;;;4954095;29;20054;-75
2022/04/13 07:22:57;;;;;;;2.70;0.60;;;18.10;57.70;;;;;;4953985;29;20031;-75
2022/04/13 07:25:23;;;;;;;3.20;1.10;;;18.10;57.50;;;;;;4953799;29;20038;-75
2022/04/13 07:27:50;;;;;;;3.95;1.15;;;18.20;56.40;;;;;;4953956;29;20019;-76
2022/04/13 07:30:16;;;;;;;1.75;0.50;;;18.50;56.40;;;;;;4953640;28;20611;-76
2022/04/13 07:32:46;;;;;;;1.95;0.75;;;18.70;56.80;;;;;;4953754;29;20030;-76
2022/04/13 07:35:13;;;;;;;2.95;1.48;;;18.70;57.20;;;;;;4953787;29;20031;-76
2022/04/13 07:37:43;;;;;;;1.45;0.60;;;18.30;55.40;;;;;;4953583;29;20047;-76
2022/04/13 07:40:11;;;;;;;3.22;0.60;;;18.30;56.80;;;;;;4953776;29;20111;-75
2022/04/13 07:42:37;;;;;;;2.85;0.75;;;18.60;57.10;;;;;;4953918;29;20027;-77
2022/04/13 07:45:04;;;;;;;3.08;1.13;;;17.30;54.20;;;;;;4953787;29;20259;-78
2022/04/13 07:47:31;;;;;;;3.83;0.88;;;18.50;56.70;;;;;;4953906;29;20607;-79
2022/04/13 07:49:56;;;;;;;5.47;1.15;;;18.30;55.30;;;;;;4953882;29;20038;-75
2022/04/13 07:52:22;;;;;;;2.35;0.73;;;18.60;59.60;;;;;;4953939;29;20039;-75
2022/04/13 07:54:48;;;;;;;2.95;0.90;;;18.60;57.50;;;;;;4953829;29;20039;-76
2022/04/13 07:57:14;;;;;;;1.27;0.65;;;18.50;56.20;;;;;;4953284;29;20476;-75
2022/04/13 07:59:41;;;;;;;1.95;0.60;;;18.40;55.40;;;;;;4953721;29;20031;-75
2022/04/13 08:02:07;;;;;;;3.10;0.70;;;18.50;54.60;;;;;;4953579;29;20437;-75
2022/04/13 08:04:36;;;;;;;3.70;0.65;;;18.80;56.10;;;;;;4953277;29;20035;-75
2022/04/13 08:07:02;;;;;;;1.50;0.60;;;18.80;55.10;;;;;;4953475;29;20054;-75
2022/04/13 08:09:28;;;;;;;0.77;0.57;;;18.70;54.10;;;;;;4952825;29;20062;-76
2022/04/13 08:11:53;;;;;;;3.50;0.80;;;18.70;54.80;;;;;;4952683;28;20034;-75
2022/04/13 08:14:20;;;;;;;3.58;0.65;;;18.80;55.30;;;;;;4952371;29;20130;-75
2022/04/13 08:16:46;;;;;;;1.35;0.60;;;18.90;55.40;;;;;;4952817;29;20020;-75
2022/04/13 08:19:11;;;;;;;0.90;0.82;;;19.00;55.60;;;;;;4953248;29;20031;-75
2022/04/13 08:21:38;;;;;;;2.17;0.73;;;19.20;52.80;;;;;;4952870;29;20031;-75
2022/04/13 08:24:05;;;;;;;4.15;0.68;;;19.40;54.40;;;;;;4952746;29;20106;-76
2022/04/13 08:26:31;;;;;;;1.58;1.05;;;19.40;52.60;;;;;;4953344;29;20024;-75
2022/04/13 08:28:56;;;;;;;4.05;1.33;;;19.30;53.80;;;;;;4952564;29;20050;-75
2022/04/13 08:31:22;;;;;;;1.13;0.50;;;19.60;54.10;;;;;;4953842;29;20035;-75
2022/04/13 08:33:48;;;;;;;1.65;0.82;;;19.30;54.40;;;;;;4952741;29;20038;-75
2022/04/13 08:36:14;;;;;;;2.58;0.70;;;19.50;53.60;;;;;;4935364;29;20062;-75
2022/04/13 08:38:40;;;;;;;1.70;0.90;;;19.30;55.10;;;;;;4952541;29;20054;-75
2022/04/13 08:41:16;;;;;;;0.90;0.50;;;19.30;52.60;;;;;;4952428;29;20029;-75
2022/04/13 08:44:07;;;;;;;5.25;1.08;;;19.40;54.80;;;;;;4952679;29;20023;-81
2022/04/13 08:46:36;;;;;;;4.60;1.25;;;19.20;54.20;;;;;;4952422;29;20050;-76
2022/04/13 08:49:04;;;;;;;0.60;0.55;;;19.50;53.00;;;;;;4952610;29;20388;-75
2022/04/13 08:51:34;;;;;;;5.20;1.33;;;19.60;53.00;;;;;;4952651;29;20035;-75
2022/04/13 08:54:22;;;;;;;1.90;0.70;;;19.30;52.90;;;;;;4952032;29;20031;-82
2022/04/13 08:56:49;;;;;;;1.55;0.57;;;19.60;52.70;;;;;;4952292;29;20453;-77
2022/04/13 08:59:33;;;;;;;2.45;0.70;;;19.50;51.60;;;;;;4952541;29;20049;-75
2022/04/13 09:02:27;;;;;;;4.60;1.05;;;19.60;51.50;;;;;;4951996;29;20731;-75
2022/04/13 09:04:59;;;;;;;3.95;0.95;;;19.60;54.40;;;;;;4952295;29;20035;-80
2022/04/13 09:07:30;;;;;;;1.70;0.80;;;19.70;54.60;;;;;;4952114;29;20067;-75
2022/04/13 09:10:00;;;;;;;2.58;0.77;;;19.80;52.10;;;;;;4951658;29;20019;-76
2022/04/13 09:12:30;;;;;;;1.27;0.77;;;20.00;52.00;;;;;;4952152;29;20113;-75
2022/04/13 09:14:59;;;;;;;4.07;0.60;;;19.90;54.30;;;;;;4951939;29;20126;-76
2022/04/13 09:17:29;;;;;;;1.23;0.60;;;19.90;54.40;;;;;;4952008;29;20026;-75
2022/04/13 09:19:57;;;;;;;9.43;1.70;;;20.00;53.60;;;;;;4951637;29;20031;-75
2022/04/13 09:22:24;;;;;;;2.03;0.88;;;20.00;53.20;;;;;;4951829;29;20380;-75
2022/04/13 09:24:51;;;;;;;4.70;0.63;;;19.90;53.70;;;;;;4951315;28;20058;-76
2022/04/13 09:27:18;;;;;;;1.25;0.80;;;19.60;52.80;;;;;;4951725;29;20034;-75
2022/04/13 09:29:45;;;;;;;2.38;0.40;;;19.70;54.30;;;;;;4951651;28;20047;-75
2022/04/13 09:32:10;;;;;;;1.85;0.70;;;19.50;54.30;;;;;;4951581;29;20027;-75
2022/04/13 09:34:36;;;;;;;4.68;0.75;;;;;;;;;;4951618;29;20106;-75
2022/04/13 09:37:03;;;;;;;0.98;0.50;;;20.10;50.80;;;;;;4952109;29;20035;-75
2022/04/13 09:39:28;;;;;;;2.47;0.80;;;20.10;52.50;;;;;;4951348;29;20106;-75
2022/04/13 09:41:54;;;;;;;1.10;0.60;;;19.70;51.50;;;;;;4951731;29;20437;-75
2022/04/13 09:44:19;;;;;;;2.58;0.70;;;19.60;52.30;;;;;;4951701;29;20511;-75
2022/04/13 09:46:46;;;;;;;0.93;0.75;;;19.70;51.00;;;;;;4951619;29;20476;-75
2022/04/13 09:49:16;;;;;;;4.80;1.00;;;19.80;51.90;;;;;;4951368;29;20031;-75
2022/04/13 09:51:50;;;;;;;7.32;0.90;;;20.10;49.50;;;;;;4951197;29;20411;-75
2022/04/13 09:54:16;;;;;;;2.38;0.63;;;20.00;50.30;;;;;;4933764;29;20134;-75
2022/04/13 09:56:49;;;;;;;1.23;0.70;;;20.20;48.80;;;;;;4951668;29;20023;-75
2022/04/13 09:59:31;;;;;;;1.13;0.82;;;20.20;49.00;;;;;;4951635;29;20031;-75
2022/04/13 10:01:58;;;;;;;0.80;0.50;;;20.10;51.70;;;;;;4951542;29;20408;-76
2022/04/13 10:04:25;;;;;;;2.22;0.70;;;20.00;49.90;;;;;;4951309;29;20113;-75
2022/04/13 10:06:52;;;;;;;4.00;0.50;;;19.90;50.50;;;;;;4951438;29;20023;-75
2022/04/13 10:09:19;;;;;;;2.75;0.65;;;20.10;53.10;;;;;;4933729;29;20039;-75
2022/04/13 10:12:03;;;;;;;0.88;0.40;;;20.10;51.70;;;;;;4933999;29;20373;-75
2022/04/13 10:14:31;;;;;;;2.05;0.80;;;20.50;51.50;;;;;;4951273;29;20042;-75
2022/04/13 10:17:07;;;;;;;4.68;0.90;;;20.30;50.60;;;;;;4951171;29;20508;-75
2022/04/13 10:19:35;;;;;;;2.25;0.85;;;20.00;50.30;;;;;;4951302;29;20190;-75
2022/04/13 10:22:01;;;;;;;3.33;0.70;;;20.50;49.40;;;;;;4951386;29;20404;-75
2022/04/13 10:24:35;;;;;;;2.70;0.63;;;20.30;51.00;;;;;;4933751;29;20472;-75
2022/04/13 10:27:17;;;;;;;2.67;0.90;;;20.40;50.60;;;;;;4951284;29;20038;-75
2022/04/13 10:29:45;;;;;;;0.98;0.98;;;20.50;52.80;;;;;;4951235;29;20055;-75
2022/04/13 10:32:14;;;;;;;3.92;1.65;;;20.70;50.50;;;;;;4951140;29;20106;-81
2022/04/13 10:34:43;;;;;;;1.05;0.52;;;20.60;50.50;;;;;;4951223;28;20035;-75
2022/04/13 10:37:14;;;;;;;1.85;0.93;;;20.60;52.00;;;;;;4954004;29;20035;-75
2022/04/13 10:39:41;;;;;;;5.15;0.80;;;20.60;51.50;;;;;;4954683;29;20030;-75
2022/04/13 10:42:09;;;;;;;2.15;0.98;;;20.50;52.10;;;;;;4954908;29;20034;-75
2022/04/13 10:44:42;;;;;;;4.78;0.77;;;20.40;50.10;;;;;;4954747;29;20082;-75
2022/04/13 10:47:10;;;;;;;1.35;0.65;;;20.50;51.00;;;;;;4937495;29;20500;-75
2022/04/13 10:49:50;;;;;;;3.08;0.77;;;20.50;49.60;;;;;;4954516;29;20034;-76
2022/04/13 10:52:28;;;;;;;4.15;0.70;;;20.50;51.10;;;;;;4937042;29;20491;-75
2022/04/13 10:55:02;;;;;;;2.63;1.05;;;21.90;51.50;;;;;;4954330;29;20050;-75
2022/04/13 10:57:40;;;;;;;2.75;0.60;;;21.00;49.90;;;;;;4954509;29;20166;-75
2022/04/13 11:00:08;;;;;;;4.47;0.90;;;21.60;49.10;;;;;;4954399;29;20030;-74
2022/04/13 11:02:44;;;;;;;4.78;0.60;;;21.50;49.70;;;;;;4954419;29;20110;-75
2022/04/13 11:05:10;;;;;;;2.60;0.63;;;21.50;49.50;;;;;;4936942;29;20384;-79
2022/04/13 11:07:38;;;;;;;1.45;0.88;;;21.80;49.70;;;;;;4954278;29;20027;-76
2022/04/13 11:10:07;;;;;;;4.78;0.90;;;21.80;50.60;;;;;;4953939;29;20027;-75
2022/04/13 11:12:33;;;;;;;0.70;0.70;;;21.80;48.00;;;;;;4954101;29;20385;-75
2022/04/13 11:15:03;;;;;;;3.63;1.52;;;21.40;51.10;;;;;;4954059;29;20042;-75
2022/04/13 11:17:29;;;;;;;3.13;0.63;;;21.70;48.60;;;;;;4954610;29;20041;-75
2022/04/13 11:20:17;;;;;;;5.75;1.40;;;21.20;49.40;;;;;;4954028;29;20057;-75
2022/04/13 11:22:44;;;;;;;8.70;1.48;;;21.90;48.70;;;;;;4936802;29;20418;-75
2022/04/13 11:25:09;;;;;;;3.60;0.70;;;21.70;48.60;;;;;;4953762;29;20455;-76
2022/04/13 11:27:52;;;;;;;3.00;0.75;;;22.10;47.70;;;;;;4953738;29;20572;-75
2022/04/13 11:30:18;;;;;;;6.28;1.23;;;21.90;48.40;;;;;;4953753;28;20047;-75
2022/04/13 11:32:44;;;;;;;3.72;1.15;;;21.90;49.50;;;;;;4953686;29;20102;-75
2022/04/13 11:35:25;;;;;;;2.33;0.75;;;21.70;49.60;;;;;;4936436;29;20075;-76
2022/04/13 11:38:10;;;;;;;3.97;1.30;;;21.40;51.70;;;;;;4953733;29;20020;-75
2022/04/13 11:41:14;;;;;;;1.67;0.60;;;21.60;49.70;;;;;;4953206;29;20038;-75
2022/04/13 11:43:40;;;;;;;2.83;0.80;;;21.80;50.40;;;;;;4953443;29;20034;-76
2022/04/13 11:46:06;;;;;;;5.13;1.10;;;22.20;48.40;;;;;;4953911;29;20023;-75
2022/04/13 11:48:36;;;;;;;2.70;0.60;;;22.10;52.80;;;;;;4953578;28;20034;-75
2022/04/13 11:51:29;;;;;;;1.10;0.57;;;22.50;52.00;;;;;;4953381;29;20019;-75
2022/04/13 11:54:05;;;;;;;4.25;0.85;;;22.80;48.20;;;;;;4935828;29;20027;-76
2022/04/13 11:56:37;;;;;;;3.13;1.05;;;22.90;49.10;;;;;;4953644;29;20031;-75
2022/04/13 11:59:03;;;;;;;2.13;0.85;;;23.10;49.10;;;;;;4953504;29;20107;-74
2022/04/13 12:01:30;;;;;;;3.47;1.10;;;23.40;47.50;;;;;;4936113;29;20031;-74
2022/04/13 12:03:58;;;;;;;5.40;1.10;;;23.50;48.80;;;;;;4953323;29;20469;-75
2022/04/13 12:06:26;;;;;;;4.43;0.98;;;23.60;46.60;;;;;;4935790;29;20033;-75
2022/04/13 12:08:57;;;;;;;4.00;0.73;;;23.80;46.70;;;;;;4935622;29;20070;-75
2022/04/13 12:11:39;;;;;;;2.25;0.88;;;23.90;46.80;;;;;;4953358;29;20019;-74
2022/04/13 12:14:05;;;;;;;4.90;0.95;;;24.00;45.60;;;;;;4953218;29;20326;-75
2022/04/13 12:16:33;;;;;;;1.30;0.52;;;24.10;47.00;;;;;;4935435;29;20097;-75
2022/04/13 12:19:09;;;;;;;1.08;0.70;;;22.90;45.70;;;;;;4953484;29;20469;-74
2022/04/13 12:21:39;;;;;;;0.77;0.63;;;23.60;47.60;;;;;;4952754;29;20023;-75
2022/04/13 12:24:12;;;;;;;4.82;0.75;;;24.20;47.30;;;;;;4952564;29;20041;-74
2022/04/13 12:26:42;;;;;;;2.55;0.52;;;24.00;47.20;;;;;;4952905;29;20515;-74
2022/04/13 12:29:22;;;;;;;2.60;0.60;;;24.40;45.40;;;;;;4952629;28;20507;-75
2022/04/13 12:31:53;;;;;;;3.50;1.15;;;24.70;45.70;;;;;;4952615;29;20027;-74
2022/04/13 12:34:21;;;;;;;2.10;0.65;;;24.50;48.80;;;;;;4952636;29;20038;-74
2022/04/13 12:37:03;;;;;;;1.45;0.60;;;24.70;45.20;;;;;;4952568;29;20098;-75
2022/04/13 12:39:33;;;;;;;2.90;1.38;;;25.00;46.40;;;;;;4952391;29;20031;-74
2022/04/13 12:42:04;;;;;;;3.28;0.77;;;25.40;46.40;;;;;;4952574;29;20023;-74
2022/04/13 12:44:30;;;;;;;2.13;0.90;;;25.20;47.60;;;;;;4952347;29;20066;-75
2022/04/13 12:47:05;;;;;;;3.55;0.73;;;26.40;45.50;;;;;;4952314;29;20050;-75
2022/04/13 12:49:31;;;;;;;3.17;0.60;;;26.20;46.10;;;;;;4952318;29;20019;-75
2022/04/13 12:51:57;;;;;;;2.20;0.60;;;26.40;43.90;;;;;;4952208;29;20058;-75